Airfield :
LOGIN :

Register | Disclaimer

   EN    FR    IT 

 










Legend :    VFR   Marginal VFR   IFR   Intensive IFR   Very Intensive IFR
Visi :
Ceiling :
>= 8 km
>= 3000ft
5 to 8 km
1000 to 3000 ft
1500m to 5 km
500 to 1000 ft
800 to 1500m
200 to 500 ft
< 800m
< 200 ft
Symbols :   Thunderstorms  Fog  Heavy snow  Heavy precipitations  Wind > 20 kt
SIGMETs :     Misc.  Thunderstorms  Icing  Turbulence  Mountain Waves  Volcanic Ashes







- Airport Elevation : 38 ft
- IATA code : TRE
- Download approach charts


EGPU - Tiree

CURRENT METAR :
  • 121320Z 20018G31KT 9999 VCSH SCT021 SCT025 06/04 Q0995

EXPIRED METARs :
  • 121250Z 20018KT 9999 -SHRA FEW019 SCT029 06/03 Q0996
  • 121220Z 21020KT 9999 -SHRA SCT025 BKN049 06/04 Q0997
  • 121150Z 23018KT 9999 -SHRA FEW012 SCT025 05/04 Q0998
  • 121120Z 23014KT 9999 -SHRA FEW010 BKN021 06/04 Q0998
  • 121050Z 18016G28KT 9000 -SHRAGS FEW010 SCT020 06/04 Q0999

TAF AMD TAF EGPU
Valid from the 12 at 12:00 until the 12 at 19:00 UTC


121238Z 1212/1219 21018G28KT 9999 SCT030
TEMPO 1212/1219 6000 RA SHRA BKN014
PROB40
TEMPO 1212/1216 23028G38KT 4000 RADZ BKN008
BECMG 1216/1218 30020G30KT
No reported NOTAMs for that airfield.



MET'MAP, your aeronautical weather chart ! - Copyright ORBIFLY December 2007 - Disclaimer

ORBIFLY MET'MAP TEAM :

Programming & Development : Alexandra Zaïnal
Concept & Development : Baudouin d'Aumeries
Co-Development & Prog : Marc-Olivier Méhu
Technical & hardware support : Manuel Goepfert

Contact : metmap@orbifly.com




SOURCES & CREDITS :

   NOAA